Time;durP1;ratioP1;P1;durP2;ratioP2;P2;SDS_P1;SDS_P2;PMS_P1;PMS_P2;Temp;Humidity;BMP_temperature;BMP_pressure;BME280_temperature;BME280_humidity;BME280_pressure;Samples;Min_cycle;Max_cycle;Signal;HPM_P1;HPM_P2
2023/01/30 00:01:36;;;;;;;7.60;4.50;;;-1.70;98.00;;;;;;5055480;28;20460;-66
2023/01/30 00:04:03;;;;;;;6.05;2.85;;;-1.80;98.00;;;;;;5055228;28;20881;-66
2023/01/30 00:06:30;;;;;;;6.30;3.20;;;-1.80;98.00;;;;;;5055314;28;20198;-65
2023/01/30 00:08:57;;;;;;;5.20;3.53;;;-1.80;98.00;;;;;;5055295;28;20507;-66
2023/01/30 00:11:25;;;;;;;12.60;5.63;;;-1.70;98.00;;;;;;5037590;28;20487;-65
2023/01/30 00:13:53;;;;;;;11.20;3.87;;;-1.70;98.00;;;;;;5055335;28;20939;-66
2023/01/30 00:16:21;;;;;;;5.82;3.83;;;-1.80;98.00;;;;;;5055464;28;20460;-66
2023/01/30 00:18:49;;;;;;;8.53;4.20;;;-1.80;98.00;;;;;;5054437;28;20212;-66
2023/01/30 00:21:16;;;;;;;4.50;3.47;;;-1.90;98.00;;;;;;5054731;28;20494;-66
2023/01/30 00:23:44;;;;;;;12.10;3.63;;;-1.90;98.00;;;;;;5054897;28;20521;-66
2023/01/30 00:26:11;;;;;;;3.90;2.50;;;-1.90;98.00;;;;;;5054841;28;20473;-65
2023/01/30 00:28:39;;;;;;;5.60;2.90;;;-1.80;98.00;;;;;;5054842;28;20451;-65
2023/01/30 00:31:08;;;;;;;5.93;3.70;;;-1.90;98.00;;;;;;5054505;28;21086;-65
2023/01/30 00:33:37;;;;;;;7.27;3.13;;;-1.90;98.00;;;;;;5054659;28;20614;-66
2023/01/30 00:36:05;;;;;;;8.60;3.10;;;-1.90;98.00;;;;;;5054675;28;20556;-66
2023/01/30 00:38:32;;;;;;;5.70;4.10;;;-1.90;98.00;;;;;;5054515;28;20458;-65
2023/01/30 00:40:59;;;;;;;5.43;3.00;;;-1.70;98.00;;;;;;5054700;28;20456;-66
2023/01/30 00:49:01;;;;;;;7.35;3.92;;;-1.70;98.00;;;;;;5039759;28;20981;-66
2023/01/30 00:51:28;;;;;;;13.20;4.70;;;-1.80;98.00;;;;;;5054334;28;20225;-66
2023/01/30 00:53:55;;;;;;;4.50;3.17;;;-1.90;98.00;;;;;;5054411;28;20456;-65
2023/01/30 00:56:23;;;;;;;5.07;3.07;;;-2.10;98.00;;;;;;5054456;28;21115;-66
2023/01/30 00:58:50;;;;;;;12.47;5.60;;;-2.20;98.00;;;;;;5036576;28;20462;-66
2023/01/30 01:01:19;;;;;;;8.43;3.97;;;-2.20;98.00;;;;;;5054341;28;20853;-65
2023/01/30 01:03:46;;;;;;;6.30;4.70;;;-2.20;98.00;;;;;;5053627;28;20969;-65
2023/01/30 01:06:13;;;;;;;7.40;3.97;;;-2.10;98.00;;;;;;5054161;28;20459;-66
2023/01/30 01:08:43;;;;;;;11.38;3.92;;;-2.00;98.00;;;;;;5054249;28;20895;-66
2023/01/30 01:11:22;;;;;;;6.63;3.57;;;-1.90;98.00;;;;;;5036226;28;20278;-66
2023/01/30 01:13:51;;;;;;;8.23;3.50;;;-1.80;98.00;;;;;;5038260;28;20987;-65
2023/01/30 01:16:20;;;;;;;6.78;4.75;;;-1.90;98.00;;;;;;5036408;28;20467;-65
2023/01/30 01:18:47;;;;;;;3.90;2.63;;;-2.00;98.00;;;;;;5054036;28;20201;-65
2023/01/30 01:21:14;;;;;;;10.57;4.47;;;-2.00;98.00;;;;;;5053765;28;20489;-66
2023/01/30 01:23:41;;;;;;;7.17;3.43;;;-1.90;98.00;;;;;;5053652;28;20487;-66
2023/01/30 01:26:08;;;;;;;6.70;4.10;;;-1.90;98.00;;;;;;5053604;28;20851;-65
2023/01/30 01:28:35;;;;;;;4.50;3.73;;;-1.90;98.00;;;;;;5053644;28;20483;-65
2023/01/30 01:31:08;;;;;;;3.05;2.80;;;-2.10;98.00;;;;;;5053515;28;20486;-66
2023/01/30 01:33:37;;;;;;;5.03;3.08;;;-2.20;98.00;;;;;;5053482;28;20915;-66
2023/01/30 01:36:08;;;;;;;1.63;1.60;;;-2.30;98.00;;;;;;5053577;28;20196;-66
2023/01/30 01:38:35;;;;;;;6.85;2.92;;;-2.30;98.00;;;;;;5053417;28;20464;-66
2023/01/30 01:41:01;;;;;;;6.43;3.10;;;-2.30;98.00;;;;;;5053569;28;20623;-66
2023/01/30 01:43:32;;;;;;;3.70;3.10;;;-2.30;98.00;;;;;;5053436;28;20463;-66
2023/01/30 01:46:02;;;;;;;4.47;2.87;;;-2.30;98.00;;;;;;5053322;28;20809;-65
2023/01/30 01:48:32;;;;;;;5.77;2.60;;;-2.20;98.00;;;;;;5053357;28;20458;-66
2023/01/30 01:51:04;;;;;;;4.80;2.97;;;-2.00;98.00;;;;;;5053077;28;20488;-65
2023/01/30 01:53:36;;;;;;;2.80;2.43;;;-2.00;98.00;;;;;;5051970;28;20783;-65
2023/01/30 01:56:05;;;;;;;6.70;3.00;;;-1.80;98.00;;;;;;5053282;28;20894;-65
2023/01/30 01:58:40;;;;;;;3.50;2.80;;;-1.80;98.00;;;;;;5053242;28;20800;-66
2023/01/30 02:01:07;;;;;;;2.88;2.08;;;-1.80;98.00;;;;;;5053243;28;20485;-66
2023/01/30 02:03:40;;;;;;;5.57;2.40;;;-1.70;98.00;;;;;;5053000;28;20556;-65
2023/01/30 02:06:10;;;;;;;3.50;2.45;;;-1.70;98.00;;;;;;5053236;28;20458;-65
2023/01/30 02:08:39;;;;;;;2.97;2.47;;;-1.50;98.00;;;;;;5053054;28;20754;-66
2023/01/30 02:11:12;;;;;;;3.90;2.90;;;-1.30;98.00;;;;;;5052918;28;20489;-65
2023/01/30 02:13:39;;;;;;;4.82;3.30;;;-1.10;98.00;;;;;;5052292;28;20463;-66
2023/01/30 02:16:08;;;;;;;8.40;3.03;;;-1.10;98.00;;;;;;5052899;28;20204;-65
2023/01/30 02:18:39;;;;;;;6.45;4.03;;;-1.20;98.00;;;;;;5052866;28;20481;-66
2023/01/30 02:21:32;;;;;;;4.00;2.53;;;-1.20;98.00;;;;;;5052678;28;20208;-66
2023/01/30 02:24:34;;;;;;;6.87;2.97;;;-1.30;98.00;;;;;;5019236;28;20451;-66
2023/01/30 02:27:30;;;;;;;3.53;2.77;;;-1.30;98.00;;;;;;5052513;28;20463;-66
2023/01/30 02:33:26;;;;;;;5.13;3.75;;;-1.30;98.00;;;;;;5150934;27;20541;-64
2023/01/30 02:36:04;;;;;;;3.50;2.10;;;-1.30;98.00;;;;;;5130132;28;20262;-64
2023/01/30 02:38:39;;;;;;;5.13;2.70;;;-1.40;98.00;;;;;;5130081;28;20468;-63
2023/01/30 02:41:16;;;;;;;2.90;2.60;;;-1.40;98.00;;;;;;5130091;27;20465;-63
2023/01/30 02:43:49;;;;;;;5.37;3.17;;;-1.30;98.00;;;;;;5129919;28;20459;-64
2023/01/30 02:46:22;;;;;;;6.30;2.90;;;-1.40;98.00;;;;;;5130153;28;20464;-63
2023/01/30 02:48:57;;;;;;;6.23;2.93;;;-1.40;98.00;;;;;;5129668;27;20460;-64
2023/01/30 02:51:30;;;;;;;5.97;3.57;;;-1.30;98.00;;;;;;5129258;28;20545;-64
2023/01/30 02:53:59;;;;;;;4.90;2.50;;;-1.30;98.00;;;;;;5129147;28;20447;-64
2023/01/30 02:56:26;;;;;;;6.40;3.07;;;-1.20;98.00;;;;;;5129772;27;20456;-64
2023/01/30 02:58:57;;;;;;;3.27;2.43;;;-1.10;98.00;;;;;;5129853;28;20554;-63
2023/01/30 03:02:00;;;;;;;4.27;2.50;;;-1.00;98.00;;;;;;5129936;28;20451;-63
2023/01/30 03:04:57;;;;;;;3.57;2.23;;;-0.90;98.00;;;;;;5106026;28;20825;-64
2023/01/30 03:07:33;;;;;;;4.40;3.50;;;-0.90;98.00;;;;;;5103453;28;20521;-64
2023/01/30 03:10:07;;;;;;;5.23;3.13;;;-0.90;98.00;;;;;;5128497;28;20459;-64
2023/01/30 03:12:42;;;;;;;5.63;2.80;;;-0.80;98.00;;;;;;5129957;27;20551;-63
2023/01/30 03:15:13;;;;;;;6.13;2.87;;;-0.80;98.00;;;;;;5128361;28;20471;-64
2023/01/30 03:17:46;;;;;;;3.43;3.00;;;-0.70;98.00;;;;;;5129787;28;20460;-63
2023/01/30 03:20:18;;;;;;;5.00;2.07;;;-0.80;98.00;;;;;;5129164;28;20470;-63
2023/01/30 03:22:46;;;;;;;2.33;1.80;;;-0.70;98.00;;;;;;5129591;28;20884;-64
2023/01/30 03:25:17;;;;;;;7.03;4.03;;;-0.60;98.00;;;;;;5128940;27;20456;-64
2023/01/30 03:27:45;;;;;;;4.40;3.23;;;-0.50;98.00;;;;;;5129232;27;20464;-64
2023/01/30 03:30:13;;;;;;;8.40;3.00;;;-0.60;98.00;;;;;;5129104;28;20860;-64
2023/01/30 03:32:40;;;;;;;3.57;2.80;;;-0.60;98.00;;;;;;5127547;28;20480;-64
2023/01/30 03:35:08;;;;;;;6.50;2.73;;;-0.70;98.00;;;;;;5129048;28;20455;-64
2023/01/30 03:37:37;;;;;;;3.53;1.90;;;-0.70;98.00;;;;;;5128873;28;20493;-64
2023/01/30 03:40:05;;;;;;;2.60;2.07;;;-0.70;98.00;;;;;;5128920;28;20458;-64
2023/01/30 03:42:32;;;;;;;2.03;1.83;;;-0.60;98.00;;;;;;5126839;27;20457;-63
2023/01/30 03:45:00;;;;;;;4.50;2.80;;;-0.50;98.00;;;;;;5113653;28;20518;-63
2023/01/30 03:47:28;;;;;;;6.40;3.50;;;-0.50;98.00;;;;;;5115296;28;20463;-63
2023/01/30 03:49:55;;;;;;;3.80;2.00;;;-0.50;98.00;;;;;;5115076;28;20809;-63
2023/01/30 03:52:23;;;;;;;2.33;2.00;;;-0.50;98.00;;;;;;5113998;28;20473;-64
2023/01/30 03:54:52;;;;;;;11.23;2.97;;;-0.40;98.00;;;;;;5115098;28;20460;-64
2023/01/30 03:57:22;;;;;;;5.53;3.33;;;-0.20;98.00;;;;;;5115278;28;21058;-64
2023/01/30 03:59:49;;;;;;;10.65;4.32;;;-0.20;98.00;;;;;;5115056;28;20864;-63
2023/01/30 04:02:19;;;;;;;7.13;3.67;;;-0.20;98.00;;;;;;5115216;28;20556;-63
2023/01/30 04:04:47;;;;;;;7.03;4.00;;;-0.40;98.00;;;;;;5115029;28;20535;-63
2023/01/30 04:07:14;;;;;;;3.60;2.53;;;-0.50;98.00;;;;;;5113848;28;20513;-63
2023/01/30 04:09:41;;;;;;;9.43;3.50;;;-0.40;98.00;;;;;;5114707;28;20202;-63
2023/01/30 04:12:10;;;;;;;3.03;2.03;;;-0.40;98.00;;;;;;5114700;28;20979;-63
2023/01/30 04:14:37;;;;;;;3.13;2.03;;;-0.40;98.00;;;;;;5114482;28;20460;-63
2023/01/30 04:17:05;;;;;;;3.30;2.23;;;-0.40;98.00;;;;;;5114850;28;20453;-63
2023/01/30 04:19:34;;;;;;;3.73;2.27;;;-0.40;98.00;;;;;;5114555;28;20459;-64
2023/01/30 04:22:02;;;;;;;6.50;2.50;;;-0.20;98.00;;;;;;5114670;28;20457;-64
2023/01/30 04:24:29;;;;;;;5.23;2.80;;;-0.20;98.00;;;;;;5114539;28;20454;-63
2023/01/30 04:26:56;;;;;;;3.00;2.40;;;-0.20;98.00;;;;;;5114486;28;20456;-63
2023/01/30 04:29:24;;;;;;;2.17;1.73;;;-0.20;98.00;;;;;;5114397;28;20801;-63
2023/01/30 04:31:51;;;;;;;9.07;3.93;;;0.00;98.00;;;;;;5113904;28;20477;-64
2023/01/30 04:34:18;;;;;;;6.67;3.60;;;0.10;98.00;;;;;;5114369;28;20457;-64
2023/01/30 04:36:47;;;;;;;2.80;2.13;;;0.10;98.00;;;;;;5114022;28;20470;-64
2023/01/30 04:39:14;;;;;;;7.67;2.37;;;0.10;98.00;;;;;;5114161;28;20898;-64
2023/01/30 04:41:41;;;;;;;4.27;2.20;;;0.20;98.00;;;;;;5112993;28;20453;-64
2023/01/30 04:44:08;;;;;;;8.17;2.27;;;0.30;98.00;;;;;;5114011;28;20465;-64
2023/01/30 04:46:36;;;;;;;4.70;2.17;;;0.40;98.00;;;;;;5112938;28;20840;-63
2023/01/30 04:49:03;;;;;;;3.50;2.90;;;0.40;98.00;;;;;;5113865;28;20470;-63
2023/01/30 04:51:31;;;;;;;4.07;2.07;;;0.50;98.00;;;;;;5113849;28;20986;-64
2023/01/30 04:53:58;;;;;;;3.37;2.33;;;0.40;98.00;;;;;;5112610;28;20448;-64
2023/01/30 04:56:25;;;;;;;1.90;1.60;;;0.50;98.00;;;;;;5112795;28;20485;-64
2023/01/30 04:58:52;;;;;;;6.67;3.30;;;0.50;98.00;;;;;;5113949;28;20460;-64
2023/01/30 05:01:24;;;;;;;1.80;1.70;;;0.40;98.00;;;;;;5114148;28;20465;-64
2023/01/30 05:03:53;;;;;;;1.60;1.57;;;0.40;98.00;;;;;;5113628;28;20511;-64
2023/01/30 05:06:20;;;;;;;3.80;2.30;;;0.40;98.00;;;;;;5113913;28;20453;-64
2023/01/30 05:08:49;;;;;;;5.27;2.50;;;0.30;98.00;;;;;;5113701;28;20464;-64
2023/01/30 05:11:19;;;;;;;3.83;2.63;;;0.40;98.00;;;;;;5113572;28;20533;-63
2023/01/30 05:13:46;;;;;;;3.20;2.10;;;0.40;98.00;;;;;;5112499;28;20484;-64
2023/01/30 05:16:14;;;;;;;3.53;1.73;;;0.40;98.00;;;;;;5112532;28;20458;-63
2023/01/30 05:18:41;;;;;;;1.70;1.60;;;0.40;98.00;;;;;;5113575;28;20459;-64
2023/01/30 05:21:12;;;;;;;4.83;2.40;;;0.40;98.00;;;;;;5113520;28;20448;-64
2023/01/30 05:23:39;;;;;;;2.90;2.37;;;0.40;98.00;;;;;;5113462;28;20457;-64
2023/01/30 05:26:07;;;;;;;2.40;1.50;;;0.50;98.00;;;;;;5113041;28;20462;-64
2023/01/30 05:28:34;;;;;;;6.40;2.70;;;0.50;98.00;;;;;;5113555;28;20894;-64
2023/01/30 05:31:02;;;;;;;5.33;1.80;;;0.50;98.00;;;;;;5113195;28;21152;-64
2023/01/30 05:33:29;;;;;;;3.20;2.33;;;0.50;98.00;;;;;;5113273;28;20481;-64
2023/01/30 05:35:56;;;;;;;2.57;2.03;;;0.60;98.00;;;;;;5113018;28;20461;-63
2023/01/30 05:38:26;;;;;;;7.83;3.40;;;0.60;98.00;;;;;;5113017;28;20462;-64
2023/01/30 05:41:00;;;;;;;3.07;2.10;;;0.70;98.00;;;;;;5113007;28;20462;-64
2023/01/30 05:43:28;;;;;;;2.60;2.13;;;0.70;98.00;;;;;;5111801;28;20543;-63
2023/01/30 05:45:55;;;;;;;3.07;2.37;;;0.80;98.00;;;;;;5113054;28;20870;-64
2023/01/30 05:48:24;;;;;;;2.30;1.70;;;0.80;98.00;;;;;;5113015;28;20866;-64
2023/01/30 05:50:52;;;;;;;3.23;2.37;;;0.80;98.00;;;;;;5112817;28;20476;-63
2023/01/30 05:53:20;;;;;;;5.10;1.80;;;0.80;98.00;;;;;;5113057;28;21091;-64
2023/01/30 05:55:55;;;;;;;2.70;2.20;;;0.80;98.00;;;;;;5112484;28;20985;-64
2023/01/30 05:58:22;;;;;;;6.27;3.17;;;0.80;98.00;;;;;;5113028;28;20453;-63
2023/01/30 06:00:50;;;;;;;3.63;2.10;;;0.80;98.00;;;;;;5111585;28;20462;-64
2023/01/30 06:03:17;;;;;;;4.17;2.97;;;0.70;98.00;;;;;;5112712;28;20452;-64
2023/01/30 06:05:44;;;;;;;4.87;1.77;;;0.70;98.00;;;;;;5112598;28;20931;-64
2023/01/30 06:08:12;;;;;;;2.97;1.90;;;0.70;98.00;;;;;;5112813;28;20465;-64
2023/01/30 06:10:39;;;;;;;6.57;2.43;;;0.70;98.00;;;;;;5112739;28;20461;-64
2023/01/30 06:13:09;;;;;;;3.27;2.33;;;0.80;98.00;;;;;;5112723;28;20890;-64
2023/01/30 06:15:37;;;;;;;4.93;2.87;;;0.70;98.00;;;;;;5111444;28;20935;-64
2023/01/30 06:18:04;;;;;;;4.20;3.00;;;0.60;98.00;;;;;;5112601;28;20469;-64
2023/01/30 06:20:31;;;;;;;2.63;2.03;;;0.60;98.00;;;;;;5112374;28;20453;-64
2023/01/30 06:22:58;;;;;;;3.10;2.40;;;0.60;98.00;;;;;;5112461;28;20458;-64
2023/01/30 06:25:26;;;;;;;4.90;1.83;;;0.60;98.00;;;;;;5112400;28;20860;-64
2023/01/30 06:27:53;;;;;;;3.40;2.47;;;0.70;98.00;;;;;;5112163;28;20494;-63
2023/01/30 06:30:22;;;;;;;3.00;2.20;;;0.60;98.00;;;;;;5110961;28;20995;-64
2023/01/30 06:32:50;;;;;;;2.50;1.70;;;0.50;98.00;;;;;;5112132;28;20488;-64
2023/01/30 06:35:17;;;;;;;5.97;1.83;;;0.60;98.00;;;;;;5112371;28;20543;-63
2023/01/30 06:37:45;;;;;;;4.23;2.03;;;0.60;98.00;;;;;;5112264;28;20518;-64
2023/01/30 06:40:13;;;;;;;3.30;2.93;;;0.60;98.00;;;;;;5112167;28;20474;-65
2023/01/30 06:42:45;;;;;;;7.50;2.47;;;0.60;98.00;;;;;;5112501;28;20464;-63
2023/01/30 06:45:12;;;;;;;2.60;1.93;;;0.60;98.00;;;;;;5110962;28;20462;-64
2023/01/30 06:47:46;;;;;;;4.00;2.27;;;0.70;98.00;;;;;;5112298;28;20864;-64
2023/01/30 06:50:14;;;;;;;3.67;2.80;;;0.70;98.00;;;;;;5112164;28;20461;-63
2023/01/30 06:52:42;;;;;;;2.50;2.20;;;0.80;98.00;;;;;;5112263;28;20486;-64
2023/01/30 06:55:10;;;;;;;2.70;2.00;;;0.90;98.00;;;;;;5112229;28;20496;-64
2023/01/30 06:57:37;;;;;;;4.20;2.43;;;0.90;98.00;;;;;;5110872;28;20508;-64
2023/01/30 07:00:06;;;;;;;3.60;2.50;;;0.90;98.00;;;;;;5111031;28;20464;-61
2023/01/30 07:02:34;;;;;;;3.47;2.13;;;0.90;98.00;;;;;;5112233;28;21097;-61
2023/01/30 07:05:03;;;;;;;3.10;1.90;;;1.00;98.00;;;;;;5111989;28;20457;-60
2023/01/30 07:07:31;;;;;;;2.87;1.90;;;1.00;98.00;;;;;;5112089;28;20466;-61
2023/01/30 07:10:00;;;;;;;3.73;1.90;;;1.00;98.00;;;;;;5111759;28;20457;-61
2023/01/30 07:12:27;;;;;;;6.03;2.20;;;1.00;98.00;;;;;;5111072;28;20459;-61
2023/01/30 07:14:54;;;;;;;2.93;2.20;;;1.00;98.00;;;;;;5110751;28;20975;-61
2023/01/30 07:17:22;;;;;;;5.03;2.67;;;1.00;98.00;;;;;;5112311;28;20519;-61
2023/01/30 07:19:50;;;;;;;2.53;1.57;;;1.00;98.00;;;;;;5115246;28;20457;-60
2023/01/30 07:22:19;;;;;;;4.20;2.40;;;1.10;98.00;;;;;;5116005;28;20502;-61
2023/01/30 07:24:46;;;;;;;3.73;2.67;;;1.10;98.00;;;;;;5115483;28;20514;-61
2023/01/30 07:27:14;;;;;;;3.33;2.17;;;1.10;98.00;;;;;;5115414;28;20458;-61
2023/01/30 07:29:41;;;;;;;2.57;2.27;;;1.10;98.00;;;;;;5114992;28;20449;-61
2023/01/30 07:32:14;;;;;;;3.80;2.30;;;1.10;98.00;;;;;;5114764;28;20562;-60
2023/01/30 07:34:41;;;;;;;3.00;2.10;;;1.10;98.00;;;;;;5115553;28;20517;-61
2023/01/30 07:37:08;;;;;;;2.70;2.13;;;1.20;98.00;;;;;;5115301;28;20549;-61
2023/01/30 07:39:36;;;;;;;3.13;1.57;;;1.20;98.00;;;;;;5115564;28;20503;-60
2023/01/30 07:42:04;;;;;;;2.80;2.33;;;1.40;98.00;;;;;;5115312;28;20462;-61
2023/01/30 07:44:32;;;;;;;2.50;1.90;;;1.30;98.00;;;;;;5115422;28;20821;-60
2023/01/30 07:46:59;;;;;;;2.43;2.10;;;1.20;98.00;;;;;;5115042;28;20472;-61
2023/01/30 07:49:31;;;;;;;1.77;1.70;;;1.30;98.00;;;;;;5115202;28;20465;-60
2023/01/30 07:51:58;;;;;;;2.80;1.77;;;1.40;98.00;;;;;;5114019;28;20454;-60
2023/01/30 07:54:25;;;;;;;2.60;2.00;;;1.40;98.00;;;;;;5115143;28;20481;-61
2023/01/30 07:56:54;;;;;;;5.30;2.33;;;1.40;98.00;;;;;;5115155;28;20538;-60
2023/01/30 07:59:21;;;;;;;6.33;2.13;;;1.50;98.00;;;;;;5115008;28;20461;-60
2023/01/30 08:01:49;;;;;;;2.90;2.07;;;1.70;98.00;;;;;;5115135;28;20838;-61
2023/01/30 08:04:16;;;;;;;1.63;1.60;;;1.70;98.00;;;;;;5114931;28;20535;-60
2023/01/30 08:06:43;;;;;;;3.47;2.70;;;1.60;98.00;;;;;;5115257;28;20882;-60
2023/01/30 08:09:11;;;;;;;4.30;2.80;;;1.60;98.00;;;;;;5113706;28;20476;-60
2023/01/30 08:11:38;;;;;;;1.43;1.40;;;1.50;98.00;;;;;;5115106;28;20457;-60
2023/01/30 08:14:06;;;;;;;3.67;2.30;;;1.50;98.00;;;;;;5114622;28;20479;-60
2023/01/30 08:16:33;;;;;;;4.30;2.30;;;1.50;98.00;;;;;;5114851;28;20458;-60
2023/01/30 08:19:01;;;;;;;3.40;2.03;;;1.50;98.00;;;;;;5114479;28;20459;-60
2023/01/30 08:21:28;;;;;;;10.13;3.50;;;1.60;98.00;;;;;;5114743;28;20948;-61
2023/01/30 08:23:56;;;;;;;7.80;2.50;;;1.60;98.00;;;;;;5114638;28;20470;-60
2023/01/30 08:26:23;;;;;;;2.20;1.90;;;1.50;98.00;;;;;;5114636;28;20458;-60
2023/01/30 08:28:50;;;;;;;3.80;2.03;;;1.50;98.00;;;;;;5114395;28;20924;-60
2023/01/30 08:31:19;;;;;;;2.20;2.03;;;1.50;98.00;;;;;;5114151;28;20527;-61
2023/01/30 08:33:46;;;;;;;2.30;1.20;;;1.60;98.00;;;;;;5114384;28;20508;-60
2023/01/30 08:36:14;;;;;;;1.50;1.50;;;1.60;98.00;;;;;;5114322;28;20462;-60
2023/01/30 08:38:41;;;;;;;3.00;1.73;;;1.60;98.00;;;;;;5114441;28;20457;-61
2023/01/30 08:41:08;;;;;;;2.17;1.70;;;1.70;98.00;;;;;;5114261;28;20447;-61
2023/01/30 08:43:35;;;;;;;4.20;2.57;;;1.60;98.00;;;;;;5112923;28;20458;-60
2023/01/30 08:46:03;;;;;;;4.67;2.07;;;1.60;98.00;;;;;;5112705;27;20475;-61
2023/01/30 08:48:39;;;;;;;6.30;2.80;;;1.80;98.00;;;;;;5113815;28;20454;-61
2023/01/30 08:51:06;;;;;;;4.33;2.23;;;1.90;98.00;;;;;;5113927;28;20453;-60
2023/01/30 08:53:36;;;;;;;5.53;2.60;;;1.90;98.00;;;;;;5113856;28;20489;-60
2023/01/30 08:56:04;;;;;;;3.47;2.47;;;2.00;98.00;;;;;;5112452;28;20473;-62
2023/01/30 08:58:31;;;;;;;3.87;2.60;;;2.00;98.00;;;;;;5113861;28;20503;-62
2023/01/30 09:00:58;;;;;;;1.90;1.73;;;2.10;98.00;;;;;;5113751;28;20922;-62
2023/01/30 09:03:25;;;;;;;3.00;2.03;;;2.10;98.00;;;;;;5113753;28;20465;-62
2023/01/30 09:05:56;;;;;;;1.50;1.40;;;2.10;98.00;;;;;;5113842;28;20462;-62
2023/01/30 09:08:23;;;;;;;2.57;1.57;;;2.10;98.00;;;;;;5113757;28;20500;-61
2023/01/30 09:10:50;;;;;;;3.27;1.83;;;2.20;98.00;;;;;;5113658;28;21021;-62
2023/01/30 09:13:19;;;;;;;2.77;2.20;;;2.20;98.00;;;;;;5112580;28;20492;-61
2023/01/30 09:15:47;;;;;;;1.47;1.30;;;2.20;98.00;;;;;;5112503;28;20458;-61
2023/01/30 09:18:14;;;;;;;2.90;1.80;;;2.20;98.00;;;;;;5113004;28;20457;-60
2023/01/30 09:20:41;;;;;;;1.70;1.60;;;2.30;98.00;;;;;;5113435;27;20463;-62
2023/01/30 09:23:09;;;;;;;3.30;2.30;;;2.40;98.00;;;;;;5113461;27;20968;-62
2023/01/30 09:25:39;;;;;;;2.90;1.93;;;2.40;98.00;;;;;;5113245;28;20463;-62
2023/01/30 09:28:06;;;;;;;2.70;2.20;;;2.50;98.00;;;;;;5113268;28;20609;-63
2023/01/30 09:30:34;;;;;;;3.30;1.97;;;2.50;98.00;;;;;;5113119;28;20814;-63
2023/01/30 09:33:01;;;;;;;1.83;1.77;;;2.60;98.00;;;;;;5112990;28;20465;-61
2023/01/30 09:35:28;;;;;;;3.60;2.13;;;2.50;98.00;;;;;;5112923;28;20508;-61
2023/01/30 09:37:55;;;;;;;4.80;2.33;;;2.60;98.00;;;;;;5112904;28;20465;-61
2023/01/30 09:40:28;;;;;;;2.23;1.60;;;2.70;98.00;;;;;;5112720;28;20462;-61
2023/01/30 09:43:24;;;;;;;1.50;1.40;;;2.70;98.00;;;;;;5112570;28;20458;-61
2023/01/30 09:46:08;;;;;;;2.73;1.43;;;2.60;98.00;;;;;;5110367;28;20478;-61
2023/01/30 09:48:41;;;;;;;4.40;2.10;;;2.50;98.00;;;;;;5112847;28;20462;-61
2023/01/30 09:51:24;;;;;;;2.57;1.77;;;2.60;98.00;;;;;;5112222;28;20463;-61
2023/01/30 09:54:11;;;;;;;3.63;1.83;;;2.60;98.00;;;;;;5112496;28;20477;-61
2023/01/30 09:56:39;;;;;;;3.63;1.87;;;2.70;98.00;;;;;;5112333;28;20851;-61
2023/01/30 09:59:06;;;;;;;2.27;1.53;;;2.70;98.00;;;;;;5112118;28;20459;-61
2023/01/30 10:01:47;;;;;;;2.03;1.50;;;2.80;98.00;;;;;;5111932;28;20497;-62
2023/01/30 10:04:18;;;;;;;2.70;1.40;;;2.80;98.00;;;;;;5112392;28;20454;-61
2023/01/30 10:06:56;;;;;;;2.90;1.67;;;2.90;98.00;;;;;;5112735;28;20447;-62
2023/01/30 10:09:33;;;;;;;2.67;1.97;;;2.90;98.00;;;;;;5113555;27;20462;-61
2023/01/30 10:12:23;;;;;;;4.27;2.63;;;2.90;98.00;;;;;;5092378;28;20459;-61
2023/01/30 10:15:07;;;;;;;2.47;1.67;;;2.80;98.00;;;;;;5091984;28;20550;-61
2023/01/30 10:17:51;;;;;;;3.60;1.93;;;3.20;98.00;;;;;;5092319;28;20528;-62
2023/01/30 10:20:41;;;;;;;2.50;2.00;;;3.10;98.00;;;;;;5115690;27;20465;-62
2023/01/30 10:23:49;;;;;;;1.90;1.80;;;3.00;98.00;;;;;;5111528;28;20834;-62
2023/01/30 10:26:19;;;;;;;2.90;1.50;;;3.00;98.00;;;;;;5111405;28;20831;-62
2023/01/30 10:28:57;;;;;;;4.07;2.17;;;3.00;98.00;;;;;;5111451;28;20463;-62
2023/01/30 10:31:28;;;;;;;2.67;2.20;;;3.10;98.00;;;;;;5110970;28;20471;-62
2023/01/30 10:34:01;;;;;;;2.13;1.77;;;3.20;98.00;;;;;;5111193;28;20876;-64
2023/01/30 10:36:36;;;;;;;1.87;1.50;;;3.20;98.00;;;;;;5111256;28;20536;-62
2023/01/30 10:39:10;;;;;;;2.23;1.50;;;3.20;98.00;;;;;;5111440;28;20443;-61
2023/01/30 10:41:41;;;;;;;1.43;1.43;;;3.30;98.00;;;;;;5111374;28;20443;-61
2023/01/30 10:44:12;;;;;;;1.77;1.60;;;3.30;98.00;;;;;;5111543;28;20853;-61
2023/01/30 10:47:08;;;;;;;5.53;1.40;;;3.40;98.00;;;;;;5111358;28;20569;-61
2023/01/30 10:49:41;;;;;;;1.17;1.17;;;3.40;98.00;;;;;;5089021;28;20949;-61
2023/01/30 10:52:25;;;;;;;2.67;1.63;;;3.40;98.00;;;;;;5111349;28;20515;-61
2023/01/30 10:55:01;;;;;;;1.80;1.57;;;3.50;98.00;;;;;;5115026;28;20539;-61
2023/01/30 10:57:41;;;;;;;1.43;1.27;;;3.50;98.00;;;;;;5115619;28;20455;-61
2023/01/30 11:00:20;;;;;;;2.37;1.63;;;3.50;98.00;;;;;;5115300;28;20478;-61
2023/01/30 11:03:09;;;;;;;2.80;1.57;;;3.50;98.00;;;;;;5115427;28;20462;-62
2023/01/30 11:05:44;;;;;;;1.37;1.33;;;3.50;98.00;;;;;;5115303;28;20463;-61
2023/01/30 11:08:19;;;;;;;1.90;1.70;;;3.60;98.00;;;;;;5115330;28;20455;-61
2023/01/30 11:10:46;;;;;;;2.30;1.53;;;3.70;98.00;;;;;;5115075;28;20554;-61
2023/01/30 11:13:18;;;;;;;1.63;1.33;;;3.60;98.00;;;;;;5115285;28;20471;-61
2023/01/30 11:15:49;;;;;;;2.13;1.40;;;3.70;98.00;;;;;;5115036;28;20486;-62
2023/01/30 11:18:17;;;;;;;1.90;1.57;;;3.80;98.00;;;;;;5115406;28;20684;-62
2023/01/30 11:20:51;;;;;;;1.47;1.30;;;3.80;98.00;;;;;;5114903;28;20459;-62
2023/01/30 11:23:26;;;;;;;3.20;1.60;;;3.80;98.00;;;;;;5114889;28;20455;-61
2023/01/30 11:25:56;;;;;;;2.10;1.63;;;3.70;98.00;;;;;;5115997;27;20469;-61
2023/01/30 11:28:25;;;;;;;3.30;1.50;;;3.70;98.00;;;;;;5117977;27;20493;-61
2023/01/30 11:30:57;;;;;;;3.40;2.30;;;3.60;98.00;;;;;;5114457;28;20469;-62
2023/01/30 11:33:33;;;;;;;3.30;1.63;;;3.50;98.00;;;;;;5114837;28;20462;-61
2023/01/30 11:36:05;;;;;;;1.80;1.40;;;3.50;98.00;;;;;;5114492;28;20507;-61
2023/01/30 11:38:34;;;;;;;1.40;1.30;;;3.50;98.00;;;;;;5114817;28;20458;-61
2023/01/30 11:41:06;;;;;;;7.33;2.30;;;3.40;98.00;;;;;;5113312;28;20463;-61
2023/01/30 11:43:35;;;;;;;2.10;1.90;;;3.30;98.00;;;;;;5114297;28;20826;-61
2023/01/30 11:46:06;;;;;;;3.00;2.10;;;3.20;98.00;;;;;;5114464;28;20454;-61
2023/01/30 11:48:36;;;;;;;1.33;1.30;;;3.20;98.00;;;;;;5114554;28;20457;-62
2023/01/30 11:51:06;;;;;;;1.70;1.57;;;3.20;98.00;;;;;;5114087;28;20455;-61
2023/01/30 11:53:37;;;;;;;1.60;1.37;;;3.10;98.00;;;;;;5112878;28;20507;-61
2023/01/30 11:56:09;;;;;;;1.40;1.37;;;3.20;98.00;;;;;;5114184;28;20842;-61
2023/01/30 11:58:40;;;;;;;2.43;1.60;;;3.10;98.00;;;;;;5114131;28;20452;-61
2023/01/30 12:01:11;;;;;;;1.37;1.10;;;3.10;98.00;;;;;;5114018;28;20964;-61
2023/01/30 12:03:47;;;;;;;2.30;1.73;;;3.10;98.00;;;;;;5113677;28;20497;-61
2023/01/30 12:06:22;;;;;;;2.47;1.80;;;3.10;98.00;;;;;;5114017;28;20458;-61
2023/01/30 12:08:54;;;;;;;1.70;1.40;;;3.00;98.00;;;;;;5112812;28;20483;-61
2023/01/30 12:11:31;;;;;;;8.20;1.53;;;3.00;98.00;;;;;;5114133;28;20486;-61
2023/01/30 12:14:14;;;;;;;2.33;1.20;;;3.00;98.00;;;;;;5114252;28;20462;-61
2023/01/30 12:16:53;;;;;;;3.47;1.37;;;3.00;98.00;;;;;;5113098;28;20462;-61
2023/01/30 12:19:32;;;;;;;2.50;1.77;;;3.00;98.00;;;;;;5114112;28;20458;-61
2023/01/30 12:22:05;;;;;;;1.77;1.33;;;3.00;98.00;;;;;;5114540;28;20458;-61
2023/01/30 12:24:39;;;;;;;2.17;1.57;;;3.00;98.00;;;;;;5116741;27;20601;-61
2023/01/30 12:27:13;;;;;;;1.30;1.10;;;3.00;98.00;;;;;;5123552;27;20458;-61
2023/01/30 12:29:54;;;;;;;2.90;1.53;;;2.90;98.00;;;;;;5124058;27;20445;-61
2023/01/30 12:32:26;;;;;;;1.37;1.33;;;2.90;98.00;;;;;;5134262;27;20557;-61
2023/01/30 12:34:54;;;;;;;2.30;1.50;;;3.00;98.00;;;;;;5134031;27;20474;-61
2023/01/30 12:37:34;;;;;;;1.30;1.20;;;3.00;98.00;;;;;;5134334;27;20906;-61
2023/01/30 12:40:10;;;;;;;1.20;1.17;;;3.00;98.00;;;;;;5134107;27;20934;-61
2023/01/30 12:43:01;;;;;;;1.10;0.90;;;3.00;98.00;;;;;;5133932;27;20449;-61
2023/01/30 12:45:31;;;;;;;2.50;1.97;;;3.00;98.00;;;;;;5133778;27;20457;-62
2023/01/30 12:48:36;;;;;;;2.50;1.60;;;2.90;98.00;;;;;;5133984;27;20450;-61
2023/01/30 12:51:15;;;;;;;1.30;1.23;;;2.90;98.00;;;;;;5107046;27;21051;-61
2023/01/30 12:53:54;;;;;;;2.20;1.17;;;2.90;98.00;;;;;;5132679;27;20477;-62
2023/01/30 12:56:43;;;;;;;2.10;1.77;;;2.90;98.00;;;;;;5133775;27;20478;-62
2023/01/30 12:59:18;;;;;;;1.30;1.20;;;2.90;98.00;;;;;;5133652;27;20450;-62
2023/01/30 13:02:04;;;;;;;2.13;1.30;;;2.70;98.00;;;;;;5133696;27;20486;-62
2023/01/30 13:04:43;;;;;;;1.70;1.40;;;2.70;98.00;;;;;;5133435;27;20761;-62
2023/01/30 13:07:20;;;;;;;1.67;1.40;;;2.60;98.00;;;;;;5133698;27;20457;-62
2023/01/30 13:15:18;;;;;;;2.27;1.30;;;2.60;98.00;;;;;;5077340;28;20493;-64
2023/01/30 13:17:59;;;;;;;1.83;1.60;;;2.50;98.00;;;;;;5083786;28;20460;-64
2023/01/30 13:20:51;;;;;;;2.07;1.77;;;2.50;98.00;;;;;;5092694;28;20510;-63
2023/01/30 13:23:22;;;;;;;2.47;1.50;;;2.60;98.00;;;;;;5075705;28;20993;-64
2023/01/30 13:25:59;;;;;;;2.20;1.30;;;2.60;98.00;;;;;;5092196;28;20460;-63
2023/01/30 13:28:31;;;;;;;1.60;1.60;;;2.60;98.00;;;;;;5092720;28;20832;-64